Myrtle, Nebraska
Current Conditions -  °F | °C
As of 3:53 PM on Tuesday 21 Oct 2014 (Local Time) from KBBW Reporting Station
Clear Clear  
Wind Chill: 76°   Ceiling: Unl
Heat Index: 76°   Visibility: 10mi
Dew Point: 52°   Wind: 21mph
Humidity: 43%   Direction: 170°S
Pressure: 29.94"   Gusts: 26mph
Location:  41.3289°N, 99.3286°W
Report Text: KBBW 212053Z AUTO 17018G23KT 10SM CLR 24/11 A2994 RMK AO2 SLP128 60000 T02440111 56023
Loading
Personal Weather Stations






























Interactive Weather Map
Tropical Storm Tracking
New forecast layout! Learn more

10-Day Weather Forecast

Advertisements
Track Severe Weather on mobile